createdAt,value
2017-04-16T00:00:39.818Z,25.27
2017-04-16T00:01:38.767Z,30.97
2017-04-16T00:02:37.876Z,26.80
2017-04-16T00:03:36.809Z,24.22
2017-04-16T00:04:35.903Z,21.77
2017-04-16T00:05:34.838Z,21.53
2017-04-16T00:06:33.827Z,29.10
2017-04-16T00:07:32.774Z,25.53
2017-04-16T00:08:31.783Z,23.60
2017-04-16T00:09:30.748Z,28.35
2017-04-16T00:10:29.670Z,21.07
2017-04-16T00:11:28.658Z,25.03
2017-04-16T00:12:27.253Z,21.42
2017-04-16T00:13:26.166Z,26.83
2017-04-16T00:14:25.201Z,28.43
2017-04-16T00:15:24.154Z,24.77
2017-04-16T00:16:23.171Z,29.53
2017-04-16T00:17:22.167Z,31.15
2017-04-16T00:18:21.145Z,30.13
2017-04-16T00:19:20.060Z,27.47
2017-04-16T00:20:19.043Z,38.48
2017-04-16T00:21:17.991Z,29.03
2017-04-16T00:22:16.935Z,31.02
2017-04-16T00:23:15.927Z,34.37
2017-04-16T00:24:16.062Z,28.02
2017-04-16T00:25:15.082Z,34.65
2017-04-16T00:26:14.126Z,30.12
2017-04-16T00:27:13.440Z,26.80
2017-04-16T00:28:12.452Z,35.30
2017-04-16T00:29:11.017Z,26.67
2017-04-16T00:30:10.131Z,27.52
2017-04-16T00:31:09.246Z,25.72
2017-04-16T00:32:08.275Z,30.37
2017-04-16T00:33:07.363Z,27.63
2017-04-16T00:34:06.651Z,24.30
2017-04-16T00:35:06.167Z,27.75
2017-04-16T00:36:05.153Z,30.57
2017-04-16T00:37:04.136Z,28.08
2017-04-16T00:38:03.156Z,32.37
2017-04-16T00:39:02.487Z,27.92
2017-04-16T00:40:01.562Z,38.03
2017-04-16T00:41:01.203Z,32.15
2017-04-16T00:42:00.237Z,28.47
2017-04-16T00:42:59.239Z,29.77
2017-04-16T00:43:58.240Z,28.92
2017-04-16T00:44:57.171Z,21.60
2017-04-16T00:45:56.518Z,25.98
2017-04-16T00:46:55.583Z,28.13
2017-04-16T00:47:54.632Z,26.08
2017-04-16T00:48:53.591Z,25.53
2017-04-16T00:49:52.549Z,22.85
2017-04-16T00:50:51.513Z,22.07
2017-04-16T00:51:50.495Z,21.20
2017-04-16T00:52:49.461Z,32.02
2017-04-16T00:53:48.477Z,28.03
2017-04-16T00:54:47.016Z,20.20
2017-04-16T00:55:45.998Z,22.08
2017-04-16T00:56:44.990Z,25.30
2017-04-16T00:57:43.991Z,29.25
2017-04-16T00:58:42.975Z,22.70
2017-04-16T00:59:41.922Z,23.58
2017-04-16T01:00:46.196Z,25.12
2017-04-16T01:02:49.216Z,23.67
2017-04-16T01:03:48.188Z,20.90
2017-04-16T01:04:47.222Z,23.00
2017-04-16T01:05:46.171Z,20.65
2017-04-16T01:06:45.195Z,19.48
2017-04-16T01:07:44.154Z,22.62
2017-04-16T01:08:43.268Z,24.17
2017-04-16T01:09:42.226Z,21.07
2017-04-16T01:10:41.206Z,18.13
2017-04-16T01:11:40.262Z,19.23
2017-04-16T01:12:39.784Z,19.37
2017-04-16T01:13:38.379Z,19.95
2017-04-16T01:14:37.351Z,15.78
2017-04-16T01:15:36.281Z,19.00
2017-04-16T01:16:35.287Z,18.17
2017-04-16T01:17:34.352Z,15.87
2017-04-16T01:18:33.324Z,18.75
2017-04-16T01:19:32.538Z,23.05
2017-04-16T01:20:31.596Z,19.90
2017-04-16T01:21:30.638Z,21.07
2017-04-16T01:22:29.691Z,21.37
2017-04-16T01:23:28.721Z,19.93
2017-04-16T01:24:27.643Z,13.53
2017-04-16T01:25:26.607Z,17.97
2017-04-16T01:26:25.627Z,14.60
2017-04-16T01:27:24.279Z,21.43
2017-04-16T01:28:23.290Z,15.52
2017-04-16T01:29:22.274Z,19.73
2017-04-16T01:30:21.223Z,16.92
2017-04-16T01:31:20.167Z,17.98
2017-04-16T01:32:19.143Z,22.65
2017-04-16T01:33:18.090Z,23.12
2017-04-16T01:34:17.115Z,18.52
2017-04-16T01:35:16.083Z,18.08
2017-04-16T01:36:15.125Z,17.83
2017-04-16T01:37:14.134Z,18.03
2017-04-16T01:38:13.484Z,21.12
2017-04-16T01:39:12.479Z,17.52
2017-04-16T01:40:11.472Z,20.58
2017-04-16T01:41:10.410Z,19.40
2017-04-16T01:42:10.115Z,17.20
2017-04-16T01:43:09.081Z,20.12
2017-04-16T01:44:08.044Z,18.22
2017-04-16T01:45:07.430Z,18.28
2017-04-16T01:46:06.402Z,19.38
2017-04-16T01:47:05.364Z,17.15
2017-04-16T01:48:04.430Z,17.00
2017-04-16T01:49:03.420Z,20.55
2017-04-16T01:50:02.366Z,25.53
2017-04-16T01:51:01.346Z,16.18
2017-04-16T01:52:00.338Z,16.75
2017-04-16T01:52:59.280Z,17.05
2017-04-16T01:53:58.261Z,17.67
2017-04-16T01:54:57.203Z,19.30
2017-04-16T01:55:56.126Z,21.33
2017-04-16T01:56:55.108Z,25.40
2017-04-16T01:57:54.131Z,19.50
2017-04-16T01:58:53.109Z,30.17
2017-04-16T01:59:52.467Z,22.68
2017-04-16T02:00:51.491Z,22.32
2017-04-16T02:01:50.844Z,27.12
2017-04-16T02:02:49.811Z,23.93
2017-04-16T02:03:48.890Z,23.75
2017-04-16T02:04:47.862Z,24.35
2017-04-16T02:05:46.817Z,27.32
2017-04-16T02:06:52.418Z,27.98
2017-04-16T02:07:51.362Z,26.72
2017-04-16T02:08:50.365Z,27.53
2017-04-16T02:09:49.334Z,21.78
2017-04-16T02:10:48.323Z,21.92
2017-04-16T02:11:47.320Z,28.12
2017-04-16T02:12:46.302Z,21.83
2017-04-16T02:13:45.280Z,26.15
2017-04-16T02:14:44.249Z,23.25
2017-04-16T02:15:43.255Z,26.02
2017-04-16T02:16:42.218Z,26.67
2017-04-16T02:17:41.197Z,26.63
2017-04-16T02:18:40.103Z,28.98
2017-04-16T02:19:39.069Z,27.83
2017-04-16T02:20:38.021Z,23.98
2017-04-16T02:21:36.963Z,33.05
2017-04-16T02:22:35.936Z,25.92
2017-04-16T02:23:34.900Z,27.15
2017-04-16T02:24:33.855Z,23.15
2017-04-16T02:25:32.913Z,26.17
2017-04-16T02:26:31.865Z,26.98
2017-04-16T02:27:30.851Z,23.20
2017-04-16T02:28:29.878Z,30.28
2017-04-16T02:29:28.913Z,26.55
2017-04-16T02:30:27.839Z,26.65
2017-04-16T02:31:26.841Z,27.63
2017-04-16T02:32:25.903Z,29.02
2017-04-16T02:33:24.891Z,28.72
2017-04-16T02:34:23.882Z,26.45
2017-04-16T02:35:22.870Z,27.95
2017-04-16T02:36:21.821Z,28.00
2017-04-16T02:37:20.775Z,27.82
2017-04-16T02:38:19.365Z,22.70
2017-04-16T02:39:18.312Z,27.70
2017-04-16T02:40:17.314Z,30.07
2017-04-16T02:41:16.258Z,25.17
2017-04-16T02:42:15.228Z,27.55
2017-04-16T02:43:14.498Z,26.68
2017-04-16T02:44:13.515Z,23.83
2017-04-16T02:45:12.491Z,30.22
2017-04-16T02:46:11.788Z,27.10
2017-04-16T02:47:10.835Z,25.87
2017-04-16T02:48:09.810Z,30.13
2017-04-16T02:49:08.756Z,20.13
2017-04-16T02:50:07.844Z,21.08
2017-04-16T02:51:06.830Z,27.60
2017-04-16T02:52:05.816Z,24.47
2017-04-16T02:53:04.858Z,21.38
2017-04-16T02:54:03.830Z,29.18
2017-04-16T02:55:02.781Z,23.17
2017-04-16T02:56:01.742Z,24.27
2017-04-16T02:57:00.755Z,24.10
2017-04-16T02:57:59.280Z,30.07
2017-04-16T02:58:58.575Z,24.05
2017-04-16T02:59:57.550Z,22.95
2017-04-16T03:00:56.526Z,26.02
2017-04-16T03:01:55.553Z,27.82
2017-04-16T03:02:54.471Z,26.63
2017-04-16T03:03:53.414Z,24.72
2017-04-16T03:04:52.381Z,26.87
2017-04-16T03:05:51.396Z,25.62
2017-04-16T03:06:50.347Z,28.92
2017-04-16T03:07:49.387Z,27.52
2017-04-16T03:08:48.329Z,30.48
2017-04-16T03:09:47.286Z,35.85
2017-04-16T03:10:46.260Z,23.33
2017-04-16T03:11:45.275Z,28.58
2017-04-16T03:12:44.180Z,27.78
2017-04-16T03:13:43.203Z,26.95
2017-04-16T03:14:42.248Z,28.55
2017-04-16T03:15:41.215Z,22.68
2017-04-16T03:16:40.136Z,28.05
2017-04-16T03:17:39.072Z,30.03
2017-04-16T03:18:38.059Z,26.07
2017-04-16T03:19:37.019Z,30.27
2017-04-16T03:20:35.991Z,24.98
2017-04-16T03:21:34.946Z,33.12
2017-04-16T03:22:33.887Z,33.90
2017-04-16T03:23:32.856Z,30.32
2017-04-16T03:24:31.428Z,30.20
2017-04-16T03:25:30.447Z,23.57
2017-04-16T03:26:29.462Z,33.07
2017-04-16T03:27:28.458Z,28.93
2017-04-16T03:28:27.378Z,25.12
2017-04-16T03:29:26.303Z,26.42
2017-04-16T03:30:25.237Z,32.43
2017-04-16T03:31:24.221Z,29.20
2017-04-16T03:32:23.131Z,29.42
2017-04-16T03:33:22.075Z,25.48
2017-04-16T03:34:21.031Z,35.67
2017-04-16T03:35:19.940Z,36.32
2017-04-16T03:36:18.939Z,30.50
2017-04-16T03:37:17.938Z,30.15
2017-04-16T03:38:16.856Z,33.15
2017-04-16T03:39:15.851Z,38.47
2017-04-16T03:40:14.811Z,24.47
2017-04-16T03:41:13.759Z,27.40
2017-04-16T03:42:12.699Z,34.67
2017-04-16T03:43:11.701Z,30.82
2017-04-16T03:44:10.667Z,40.43
2017-04-16T03:45:09.644Z,28.05
2017-04-16T03:46:08.635Z,31.95
2017-04-16T03:47:07.623Z,37.22
2017-04-16T03:48:06.537Z,29.48
2017-04-16T03:49:05.563Z,29.48
2017-04-16T03:50:04.470Z,28.77
2017-04-16T03:51:03.418Z,31.03
2017-04-16T03:52:02.387Z,31.40
2017-04-16T03:53:01.306Z,28.80
2017-04-16T03:54:00.235Z,30.92
2017-04-16T03:54:59.263Z,34.55
2017-04-16T03:55:58.231Z,28.85
2017-04-16T03:56:57.202Z,27.33
2017-04-16T03:57:56.193Z,31.15
2017-04-16T03:58:55.113Z,32.38
2017-04-16T03:59:54.121Z,31.73
2017-04-16T04:00:53.107Z,30.30
2017-04-16T04:01:52.099Z,35.37
2017-04-16T04:02:51.038Z,22.40
2017-04-16T04:03:50.946Z,29.70
2017-04-16T04:04:50.163Z,22.47
2017-04-16T04:05:49.115Z,33.52
2017-04-16T04:06:48.137Z,24.38
2017-04-16T04:07:47.141Z,32.32
2017-04-16T04:08:46.126Z,28.43
2017-04-16T04:09:45.494Z,26.73
2017-04-16T04:10:44.411Z,36.13
2017-04-16T04:11:43.358Z,29.87
2017-04-16T04:12:42.322Z,28.93
2017-04-16T04:13:41.236Z,25.62
2017-04-16T04:14:39.746Z,24.95
2017-04-16T04:15:38.795Z,27.42
2017-04-16T04:16:37.716Z,25.17
2017-04-16T04:17:36.699Z,30.80
2017-04-16T04:18:35.631Z,28.90
2017-04-16T04:19:34.586Z,30.07
2017-04-16T04:20:33.551Z,35.00
2017-04-16T04:21:32.543Z,26.92
2017-04-16T04:22:31.519Z,26.08
2017-04-16T04:23:30.567Z,32.47
2017-04-16T04:24:29.591Z,26.05
2017-04-16T04:25:28.523Z,21.70
2017-04-16T04:26:27.483Z,28.45
2017-04-16T04:27:26.418Z,31.52
2017-04-16T04:28:25.438Z,27.92
2017-04-16T04:29:24.758Z,29.75
2017-04-16T04:30:23.711Z,28.90
2017-04-16T04:31:22.615Z,27.25
2017-04-16T04:32:21.575Z,29.10
2017-04-16T04:33:20.877Z,26.82
2017-04-16T04:34:19.880Z,24.67
2017-04-16T04:35:18.845Z,30.42
2017-04-16T04:36:17.763Z,23.33
2017-04-16T04:37:16.731Z,25.60
2017-04-16T04:38:15.650Z,30.90
2017-04-16T04:39:14.654Z,24.13
2017-04-16T04:40:13.615Z,27.18
2017-04-16T04:41:12.537Z,26.45
2017-04-16T04:42:11.531Z,21.67
2017-04-16T04:43:10.469Z,23.27
2017-04-16T04:44:09.407Z,26.67
2017-04-16T04:45:08.371Z,31.53
2017-04-16T04:46:07.266Z,33.03
2017-04-16T04:47:06.251Z,25.77
2017-04-16T04:48:05.287Z,28.12
2017-04-16T04:49:04.253Z,23.87
2017-04-16T04:50:03.264Z,25.35
2017-04-16T04:51:02.219Z,26.15
2017-04-16T04:52:01.204Z,27.78
2017-04-16T04:53:00.159Z,23.03
2017-04-16T04:53:59.104Z,30.93
2017-04-16T04:54:58.087Z,36.00
2017-04-16T04:55:57.003Z,25.32
2017-04-16T04:56:55.995Z,24.98
2017-04-16T04:57:54.958Z,31.77
2017-04-16T04:58:53.967Z,25.12
2017-04-16T04:59:52.932Z,29.00
2017-04-16T05:00:51.899Z,22.43
2017-04-16T05:01:50.859Z,30.95
2017-04-16T05:02:49.845Z,23.72
2017-04-16T05:03:48.809Z,25.93
2017-04-16T05:04:47.815Z,26.35
2017-04-16T05:05:46.774Z,28.77
2017-04-16T05:06:45.725Z,24.68
2017-04-16T05:07:44.694Z,23.48
2017-04-16T05:08:43.687Z,26.02
2017-04-16T05:09:42.598Z,30.35
2017-04-16T05:10:41.625Z,28.58
2017-04-16T05:11:40.607Z,22.52
2017-04-16T05:12:39.623Z,30.20
2017-04-16T05:13:38.599Z,23.70
2017-04-16T05:14:37.595Z,35.12
2017-04-16T05:15:36.566Z,27.45
2017-04-16T05:16:35.539Z,29.97
2017-04-16T05:17:34.625Z,27.40
2017-04-16T05:18:33.575Z,48.08
2017-04-16T05:19:32.514Z,26.43
2017-04-16T05:20:32.231Z,25.58
2017-04-16T05:21:31.183Z,27.68
2017-04-16T05:22:30.182Z,30.30
2017-04-16T05:23:29.426Z,21.97
2017-04-16T05:24:28.478Z,27.55
2017-04-16T05:25:27.490Z,25.12
2017-04-16T05:26:26.458Z,21.98
2017-04-16T05:27:25.391Z,29.78
2017-04-16T05:28:24.388Z,30.28
2017-04-16T05:29:23.324Z,34.02
2017-04-16T05:30:22.283Z,29.55
2017-04-16T05:31:21.267Z,28.62
2017-04-16T05:32:20.279Z,29.25
2017-04-16T05:33:19.243Z,26.38
2017-04-16T05:34:18.207Z,21.98
2017-04-16T05:35:17.220Z,24.35
2017-04-16T05:36:16.231Z,23.27
2017-04-16T05:37:15.178Z,30.20
2017-04-16T05:38:14.151Z,26.28
2017-04-16T05:39:13.186Z,30.12
2017-04-16T05:40:12.091Z,23.58
2017-04-16T05:41:11.087Z,27.13
2017-04-16T05:42:10.075Z,22.72
2017-04-16T05:43:09.035Z,24.68
2017-04-16T05:44:08.350Z,23.73
2017-04-16T05:45:07.271Z,26.38
2017-04-16T05:46:05.904Z,30.03
2017-04-16T05:47:04.907Z,24.58
2017-04-16T05:48:03.871Z,27.43
2017-04-16T05:49:02.808Z,29.50
2017-04-16T05:50:01.799Z,27.98
2017-04-16T05:51:00.752Z,23.52
2017-04-16T05:51:59.671Z,21.07
2017-04-16T05:52:58.654Z,24.25
2017-04-16T05:53:58.340Z,22.28
2017-04-16T05:54:57.303Z,27.05
2017-04-16T05:55:56.287Z,28.97
2017-04-16T05:56:55.627Z,24.68
2017-04-16T05:57:54.651Z,25.17
2017-04-16T05:58:53.591Z,25.82
2017-04-16T05:59:52.539Z,30.93
2017-04-16T06:00:51.507Z,36.45
2017-04-16T06:01:50.794Z,23.88
2017-04-16T06:02:49.771Z,27.25
2017-04-16T06:03:48.340Z,22.63
2017-04-16T06:04:47.291Z,27.80
2017-04-16T06:05:46.223Z,28.33
2017-04-16T06:06:45.171Z,27.40
2017-04-16T06:07:44.088Z,29.83
2017-04-16T06:08:43.118Z,30.90
2017-04-16T06:09:42.087Z,27.85
2017-04-16T06:10:41.083Z,24.33
2017-04-16T06:11:39.687Z,23.68
2017-04-16T06:12:38.643Z,27.78
2017-04-16T06:13:37.611Z,19.92
2017-04-16T06:14:36.575Z,23.73
2017-04-16T06:15:35.523Z,29.20
2017-04-16T06:16:34.458Z,23.25
2017-04-16T06:17:33.387Z,30.13
2017-04-16T06:18:32.316Z,22.32
2017-04-16T06:19:31.310Z,34.32
2017-04-16T06:20:30.667Z,25.22
2017-04-16T06:21:29.603Z,26.92
2017-04-16T06:22:28.562Z,31.75
2017-04-16T06:23:27.540Z,25.25
2017-04-16T06:24:26.486Z,22.82
2017-04-16T06:25:25.559Z,24.28
2017-04-16T06:26:24.506Z,28.97
2017-04-16T06:27:23.450Z,28.18
2017-04-16T06:28:22.418Z,28.93
2017-04-16T06:29:21.342Z,29.28
2017-04-16T06:30:20.356Z,26.48
2017-04-16T06:31:19.379Z,23.92
2017-04-16T06:32:18.355Z,29.52
2017-04-16T06:33:17.327Z,23.08
2017-04-16T06:34:16.260Z,21.95
2017-04-16T06:35:15.199Z,26.50
2017-04-16T06:36:14.132Z,30.03
2017-04-16T06:37:13.147Z,27.30
2017-04-16T06:38:12.110Z,24.53
2017-04-16T06:39:11.072Z,25.78
2017-04-16T06:40:10.034Z,27.53
2017-04-16T06:41:09.002Z,26.77
2017-04-16T06:42:08.011Z,27.50
2017-04-16T06:43:06.986Z,29.77
2017-04-16T06:44:05.963Z,25.37
2017-04-16T06:45:04.967Z,26.07
2017-04-16T06:46:03.939Z,26.07
2017-04-16T06:47:02.940Z,29.42
2017-04-16T06:48:01.916Z,27.05
2017-04-16T06:49:00.892Z,28.57
2017-04-16T06:49:59.825Z,27.53
2017-04-16T06:50:58.790Z,26.42
2017-04-16T06:51:57.734Z,23.10
2017-04-16T06:52:56.813Z,29.17
2017-04-16T06:53:55.791Z,29.48
2017-04-16T06:54:54.751Z,34.18
2017-04-16T06:55:53.690Z,27.65
2017-04-16T06:56:52.703Z,34.17
2017-04-16T06:57:51.692Z,29.60
2017-04-16T06:58:50.619Z,29.60
2017-04-16T06:59:49.550Z,26.80
2017-04-16T07:00:48.588Z,30.07
2017-04-16T07:01:47.663Z,27.77
2017-04-16T07:02:47.019Z,26.78
2017-04-16T07:03:46.072Z,29.17
2017-04-16T07:04:45.039Z,29.22
2017-04-16T07:05:43.978Z,30.00
2017-04-16T07:06:42.997Z,32.22
2017-04-16T07:07:41.947Z,27.13
2017-04-16T07:08:40.893Z,28.13
2017-04-16T07:09:39.856Z,30.60
2017-04-16T07:10:38.823Z,30.55
2017-04-16T07:11:37.787Z,25.02
2017-04-16T07:12:36.820Z,29.97
2017-04-16T07:13:35.775Z,26.68
2017-04-16T07:14:34.734Z,26.92
2017-04-16T07:15:33.682Z,30.93
2017-04-16T07:16:32.595Z,32.20
2017-04-16T07:17:31.579Z,24.78
2017-04-16T07:18:30.542Z,27.02
2017-04-16T07:19:29.488Z,35.12
2017-04-16T07:20:28.091Z,31.02
2017-04-16T07:21:27.003Z,29.57
2017-04-16T07:22:26.000Z,31.35
2017-04-16T07:23:24.995Z,26.93
2017-04-16T07:24:24.029Z,34.27
2017-04-16T07:25:23.019Z,31.22
2017-04-16T07:26:21.956Z,31.88
2017-04-16T07:27:20.931Z,29.02
2017-04-16T07:28:19.952Z,31.13
2017-04-16T07:29:18.896Z,25.75
2017-04-16T07:30:17.911Z,30.32
2017-04-16T07:31:16.831Z,29.43
2017-04-16T07:32:15.862Z,28.97
2017-04-16T07:33:14.815Z,25.42
2017-04-16T07:34:13.779Z,24.92
2017-04-16T07:35:12.328Z,27.95
2017-04-16T07:36:11.290Z,25.52
2017-04-16T07:37:10.270Z,28.10
2017-04-16T07:38:09.187Z,34.12
2017-04-16T07:39:08.242Z,31.00
2017-04-16T07:40:07.194Z,27.38
2017-04-16T07:41:06.171Z,27.70
2017-04-16T07:42:05.164Z,29.08
2017-04-16T07:43:04.231Z,28.28
2017-04-16T07:44:03.243Z,26.07
2017-04-16T07:45:02.200Z,27.67
2017-04-16T07:46:01.224Z,25.13
2017-04-16T07:47:00.174Z,28.33
2017-04-16T07:47:59.160Z,29.43
2017-04-16T07:48:58.105Z,28.25
2017-04-16T07:49:56.992Z,29.68
2017-04-16T07:50:56.655Z,23.68
2017-04-16T07:51:55.648Z,27.93
2017-04-16T07:52:54.673Z,25.40
2017-04-16T07:53:53.689Z,26.63
2017-04-16T07:54:52.699Z,37.25
2017-04-16T07:55:51.715Z,26.57
2017-04-16T07:56:50.687Z,23.83
2017-04-16T07:57:49.626Z,34.28
2017-04-16T07:58:48.732Z,24.77
2017-04-16T07:59:47.697Z,27.78
2017-04-16T08:00:46.991Z,40.95
2017-04-16T08:01:46.042Z,29.55
2017-04-16T08:02:44.979Z,25.32
2017-04-16T08:03:43.944Z,25.85
2017-04-16T08:04:42.903Z,32.45
2017-04-16T08:05:41.854Z,26.07
2017-04-16T08:06:40.905Z,30.63
2017-04-16T08:07:39.885Z,38.82
2017-04-16T08:08:38.865Z,26.18
2017-04-16T08:09:37.834Z,21.98
2017-04-16T08:10:36.810Z,27.27
2017-04-16T08:11:35.803Z,31.85
2017-04-16T08:12:34.732Z,29.23
2017-04-16T08:13:33.696Z,25.75
2017-04-16T08:14:32.695Z,20.35
2017-04-16T08:15:31.651Z,20.18
2017-04-16T08:16:30.609Z,23.60
2017-04-16T08:17:29.587Z,17.90
2017-04-16T08:18:28.510Z,19.87
2017-04-16T08:19:27.445Z,20.18
2017-04-16T08:20:26.359Z,21.10
2017-04-16T08:21:25.351Z,24.57
2017-04-16T08:22:24.335Z,20.15
2017-04-16T08:23:23.340Z,21.10
2017-04-16T08:24:22.333Z,22.18
2017-04-16T08:25:20.903Z,24.55
2017-04-16T08:26:19.888Z,20.68
2017-04-16T08:27:18.865Z,22.98
2017-04-16T08:28:17.908Z,18.72
2017-04-16T08:29:17.308Z,23.23
2017-04-16T08:30:16.240Z,15.35
2017-04-16T08:31:15.168Z,18.55
2017-04-16T08:32:14.139Z,15.90
2017-04-16T08:33:13.084Z,22.28
2017-04-16T08:34:12.056Z,13.17
2017-04-16T08:35:11.098Z,16.63
2017-04-16T08:36:10.005Z,23.33
2017-04-16T08:37:08.977Z,21.75
2017-04-16T08:38:07.963Z,19.28
2017-04-16T08:39:07.305Z,17.88
2017-04-16T08:40:06.217Z,15.58
2017-04-16T08:41:05.285Z,18.83
2017-04-16T08:42:04.280Z,19.77
2017-04-16T08:43:03.235Z,16.82
2017-04-16T08:44:02.189Z,18.97
2017-04-16T08:45:01.528Z,16.38
2017-04-16T08:46:00.492Z,17.73
2017-04-16T08:46:59.451Z,14.00
2017-04-16T08:47:58.407Z,19.38
2017-04-16T08:48:57.387Z,16.08
2017-04-16T08:49:56.313Z,15.03
2017-04-16T08:50:55.252Z,15.33
2017-04-16T08:51:54.215Z,17.50
2017-04-16T08:52:53.179Z,20.70
2017-04-16T08:53:52.127Z,15.55
2017-04-16T08:54:51.075Z,21.38
2017-04-16T08:55:50.005Z,14.70
2017-04-16T08:56:48.927Z,10.57
2017-04-16T08:57:47.947Z,13.63
2017-04-16T08:58:47.639Z,13.63
2017-04-16T08:59:46.568Z,15.40
2017-04-16T09:00:45.110Z,12.15
2017-04-16T09:01:44.068Z,16.82
2017-04-16T09:02:42.978Z,13.33
2017-04-16T09:03:41.996Z,16.27
2017-04-16T09:04:40.959Z,18.10
2017-04-16T09:05:39.912Z,13.65
2017-04-16T09:06:38.856Z,13.15
2017-04-16T09:07:37.843Z,18.70
2017-04-16T09:08:36.819Z,15.45
2017-04-16T09:09:35.820Z,11.62
2017-04-16T09:10:34.831Z,14.95
2017-04-16T09:11:33.768Z,15.95
2017-04-16T09:12:32.735Z,19.37
2017-04-16T09:13:31.700Z,19.98
2017-04-16T09:14:30.660Z,20.35
2017-04-16T09:15:29.568Z,19.28
2017-04-16T09:16:28.589Z,17.13
2017-04-16T09:17:27.267Z,22.60
2017-04-16T09:18:26.611Z,14.43
2017-04-16T09:19:25.560Z,15.80
2017-04-16T09:20:24.147Z,12.38
2017-04-16T09:21:23.094Z,25.88
2017-04-16T09:22:22.021Z,15.47
2017-04-16T09:23:20.992Z,21.90
2017-04-16T09:24:20.028Z,19.43
2017-04-16T09:25:18.972Z,19.65
2017-04-16T09:26:17.904Z,13.70
2017-04-16T09:27:16.903Z,15.20
2017-04-16T09:28:15.821Z,18.15
2017-04-16T09:29:14.381Z,17.58
2017-04-16T09:30:13.358Z,15.48
2017-04-16T09:31:12.291Z,18.25
2017-04-16T09:32:11.234Z,14.25
2017-04-16T09:33:10.207Z,12.97
2017-04-16T09:34:09.571Z,13.60
2017-04-16T09:35:08.586Z,17.95
2017-04-16T09:36:07.511Z,18.22
2017-04-16T09:37:06.600Z,16.52
2017-04-16T09:38:05.650Z,20.52
2017-04-16T09:39:04.790Z,22.38
2017-04-16T09:40:03.781Z,17.62
2017-04-16T09:41:02.720Z,15.72
2017-04-16T09:42:01.721Z,18.08
2017-04-16T09:43:00.752Z,18.20
2017-04-16T09:43:59.740Z,19.72
2017-04-16T09:44:58.683Z,19.32
2017-04-16T09:45:57.662Z,26.07
2017-04-16T09:46:56.568Z,15.73
2017-04-16T09:47:55.604Z,15.40
2017-04-16T09:48:54.596Z,16.87
2017-04-16T09:49:53.549Z,18.17
2017-04-16T09:50:52.531Z,20.17
2017-04-16T09:51:51.515Z,16.83
2017-04-16T09:52:50.488Z,18.90
2017-04-16T09:53:49.459Z,14.90
2017-04-16T09:54:48.439Z,18.37
2017-04-16T09:55:47.391Z,21.75
2017-04-16T09:56:46.362Z,23.58
2017-04-16T09:57:45.302Z,21.30
2017-04-16T09:58:43.910Z,16.48
2017-04-16T09:59:42.879Z,22.82
2017-04-16T10:00:41.807Z,16.97
2017-04-16T10:01:40.803Z,15.70
2017-04-16T10:02:39.791Z,16.68
2017-04-16T10:03:38.807Z,13.65
2017-04-16T10:04:37.759Z,18.27
2017-04-16T10:05:37.111Z,16.42
2017-04-16T10:06:35.687Z,17.10
2017-04-16T10:07:34.621Z,12.65
2017-04-16T10:08:33.558Z,17.93
2017-04-16T10:09:32.536Z,21.60
2017-04-16T10:10:31.464Z,18.75
2017-04-16T10:11:30.363Z,15.85
2017-04-16T10:12:29.304Z,22.05
2017-04-16T10:13:28.280Z,25.38
2017-04-16T10:14:27.206Z,20.42
2017-04-16T10:15:26.208Z,16.70
2017-04-16T10:16:25.179Z,15.05
2017-04-16T10:17:23.743Z,21.90
2017-04-16T10:18:22.699Z,18.48
2017-04-16T10:19:22.033Z,18.52
2017-04-16T10:20:20.974Z,15.22
2017-04-16T10:21:20.012Z,21.67
2017-04-16T10:22:18.943Z,15.10
2017-04-16T10:23:17.931Z,14.87
2017-04-16T10:24:16.829Z,12.63
2017-04-16T10:25:15.875Z,19.10
2017-04-16T10:26:14.823Z,13.15
2017-04-16T10:27:13.800Z,18.43
2017-04-16T10:28:12.763Z,14.17
2017-04-16T10:29:11.721Z,16.28
2017-04-16T10:30:10.758Z,11.28
2017-04-16T10:31:09.775Z,21.10
2017-04-16T10:32:08.706Z,17.40
2017-04-16T10:33:07.683Z,17.22
2017-04-16T10:34:06.270Z,13.68
2017-04-16T10:35:05.232Z,14.20
2017-04-16T10:36:04.199Z,16.07
2017-04-16T10:37:03.150Z,19.03
2017-04-16T10:38:02.148Z,17.53
2017-04-16T10:39:01.098Z,15.63
2017-04-16T10:40:00.048Z,17.30
2017-04-16T10:40:59.007Z,14.45
2017-04-16T10:41:57.979Z,12.77
2017-04-16T10:42:56.951Z,13.92
2017-04-16T10:43:56.893Z,16.92
2017-04-16T10:44:55.785Z,11.33
2017-04-16T10:45:54.819Z,13.53
2017-04-16T10:46:53.363Z,20.68
2017-04-16T10:47:52.320Z,15.37
2017-04-16T10:48:51.357Z,13.20
2017-04-16T10:49:50.370Z,14.17
2017-04-16T10:50:49.844Z,19.42
2017-04-16T10:51:48.815Z,14.42
2017-04-16T10:52:47.762Z,21.83
2017-04-16T10:53:46.716Z,13.10
2017-04-16T10:54:45.720Z,20.15
2017-04-16T10:55:44.690Z,11.03
2017-04-16T10:56:43.654Z,17.62
2017-04-16T10:57:42.639Z,15.70
2017-04-16T10:58:41.600Z,14.80
2017-04-16T10:59:40.723Z,16.15
2017-04-16T11:00:39.728Z,15.73
2017-04-16T11:01:38.714Z,19.23
2017-04-16T11:02:37.683Z,13.68
2017-04-16T11:03:36.615Z,14.22
2017-04-16T11:04:35.595Z,18.58
2017-04-16T11:05:34.542Z,14.83
2017-04-16T11:06:33.655Z,20.83
2017-04-16T11:07:32.671Z,12.20
2017-04-16T11:08:32.051Z,15.58
2017-04-16T11:09:31.003Z,14.13
2017-04-16T11:10:29.939Z,15.22
2017-04-16T11:11:28.946Z,12.40
2017-04-16T11:12:27.962Z,11.20
2017-04-16T11:13:26.512Z,13.53
2017-04-16T11:14:25.536Z,17.90
2017-04-16T11:15:24.472Z,14.15
2017-04-16T11:16:23.419Z,10.25
2017-04-16T11:17:22.379Z,16.95
2017-04-16T11:18:21.299Z,12.93
2017-04-16T11:19:20.276Z,20.52
2017-04-16T11:20:19.289Z,19.60
2017-04-16T11:21:18.209Z,24.62
2017-04-16T11:22:17.236Z,11.25
2017-04-16T11:23:16.567Z,11.55
2017-04-16T11:24:15.607Z,15.77
2017-04-16T11:25:14.673Z,13.75
2017-04-16T11:26:13.705Z,12.82
2017-04-16T11:27:12.311Z,14.82
2017-04-16T11:28:11.391Z,21.20
2017-04-16T11:29:10.336Z,14.77
2017-04-16T11:30:09.293Z,16.43
2017-04-16T11:31:08.414Z,17.32
2017-04-16T11:32:07.468Z,11.17
2017-04-16T11:33:06.471Z,15.47
2017-04-16T11:34:05.508Z,17.98
2017-04-16T11:35:04.463Z,10.47
2017-04-16T11:36:03.621Z,11.87
2017-04-16T11:37:02.545Z,11.68
2017-04-16T11:38:01.548Z,13.08
2017-04-16T11:39:00.540Z,15.30
2017-04-16T11:39:59.517Z,14.32
2017-04-16T11:40:58.478Z,15.08
2017-04-16T11:41:57.007Z,16.40
2017-04-16T11:42:56.348Z,13.90
2017-04-16T11:43:55.315Z,16.28
2017-04-16T11:44:54.264Z,17.50
2017-04-16T11:45:53.306Z,15.87
2017-04-16T11:46:52.268Z,13.70
2017-04-16T11:47:51.256Z,12.72
2017-04-16T11:48:50.200Z,12.03
2017-04-16T11:49:49.935Z,15.92
2017-04-16T11:50:48.931Z,12.73
2017-04-16T11:51:47.919Z,13.72
2017-04-16T11:52:46.836Z,13.68
2017-04-16T11:53:45.839Z,13.55
2017-04-16T11:54:44.815Z,9.83
2017-04-16T11:55:43.786Z,18.50
2017-04-16T11:56:42.718Z,10.13
2017-04-16T11:57:41.702Z,15.78
2017-04-16T11:58:40.655Z,11.12
2017-04-16T11:59:39.635Z,11.82
2017-04-16T12:00:38.622Z,22.80
2017-04-16T12:01:37.636Z,22.30
2017-04-16T12:02:36.951Z,13.72
2017-04-16T12:03:35.955Z,13.48
2017-04-16T12:04:34.896Z,17.20
2017-04-16T12:05:33.855Z,12.28
2017-04-16T12:06:32.819Z,13.23
2017-04-16T12:07:31.800Z,14.65
2017-04-16T12:08:30.336Z,11.70
2017-04-16T12:09:29.331Z,12.33
2017-04-16T12:10:28.259Z,16.05
2017-04-16T12:11:27.229Z,14.98
2017-04-16T12:12:26.153Z,32.80
2017-04-16T12:13:25.162Z,16.43
2017-04-16T12:14:24.140Z,12.30
2017-04-16T12:15:23.063Z,17.82
2017-04-16T12:16:22.788Z,18.30
2017-04-16T12:17:21.787Z,15.45
2017-04-16T12:18:20.780Z,21.45
2017-04-16T12:19:19.714Z,17.87
2017-04-16T12:20:18.691Z,16.62
2017-04-16T12:21:17.656Z,15.70
2017-04-16T12:22:16.619Z,16.52
2017-04-16T12:23:15.583Z,17.38
2017-04-16T12:24:14.527Z,27.90
2017-04-16T12:25:13.551Z,16.83
2017-04-16T12:26:12.536Z,14.63
2017-04-16T12:27:11.523Z,18.97
2017-04-16T12:28:10.485Z,20.28
2017-04-16T12:29:09.563Z,22.70
2017-04-16T12:30:08.125Z,22.13
2017-04-16T12:31:07.049Z,16.52
2017-04-16T12:32:06.068Z,12.12
2017-04-16T12:33:04.979Z,23.17
2017-04-16T12:34:03.994Z,15.67
2017-04-16T12:35:02.996Z,18.58
2017-04-16T12:36:01.980Z,12.38
2017-04-16T12:37:00.979Z,18.48
2017-04-16T12:37:59.980Z,18.03
2017-04-16T12:38:59.296Z,15.37
2017-04-16T12:39:58.378Z,16.17
2017-04-16T12:40:57.348Z,12.37